Time;durP1;ratioP1;P1;durP2;ratioP2;P2;SDS_P1;SDS_P2;PMS_P1;PMS_P2;Temp;Humidity;BMP_temperature;BMP_pressure;BME280_temperature;BME280_humidity;BME280_pressure;Samples;Min_cycle;Max_cycle;Signal;HPM_P1;HPM_P2
2021/05/12 00:00:19;;;;;;;8.95;2.50;;;;;;;24.04;39.82;98825.50;4485011;32;33691;-58
2021/05/12 00:02:47;;;;;;;7.75;2.35;;;;;;;24.03;39.90;98821.97;4484815;32;33385;-60
2021/05/12 00:05:15;;;;;;;6.68;2.40;;;;;;;24.03;39.88;98824.69;4484880;32;34833;-60
2021/05/12 00:07:43;;;;;;;5.85;2.87;;;;;;;24.04;40.00;98828.22;4484807;32;35520;-60
2021/05/12 00:10:11;;;;;;;10.43;2.33;;;;;;;24.04;39.86;98828.22;4484724;32;33744;-59
2021/05/12 00:12:39;;;;;;;6.60;2.42;;;;;;;24.06;39.70;98817.88;4484994;31;33308;-59
2021/05/12 00:15:09;;;;;;;6.47;2.20;;;;;;;24.07;39.80;98817.66;4485048;32;34846;-59
2021/05/12 00:17:37;;;;;;;;;;;;;;;24.05;39.85;98811.63;4485245;32;33889;-59
2021/05/12 00:20:06;;;;;;;9.02;2.40;;;;;;;24.16;39.63;98810.66;4484837;32;35038;-60
2021/05/12 00:22:39;;;;;;;6.60;2.45;;;;;;;24.08;39.78;98800.22;4484505;32;34283;-60
2021/05/12 00:25:08;;;;;;;8.07;2.55;;;;;;;24.08;39.83;98808.38;4484839;32;34987;-59
2021/05/12 00:27:35;;;;;;;6.70;2.45;;;;;;;24.04;40.08;98801.78;4484791;32;33530;-58
2021/05/12 00:30:05;;;;;;;10.80;2.72;;;;;;;24.03;40.04;98808.34;4484786;32;34563;-58
2021/05/12 00:32:33;;;;;;;10.02;2.95;;;;;;;24.03;40.01;98808.34;4485034;32;33405;-59
2021/05/12 00:35:04;;;;;;;5.72;2.17;;;;;;;24.04;40.07;98809.97;4484614;32;33872;-60
2021/05/12 00:37:32;;;;;;;8.68;2.40;;;;;;;24.04;40.01;98812.69;4484992;32;33833;-58
2021/05/12 00:40:01;;;;;;;7.07;2.25;;;;;;;24.05;39.96;98814.34;4484516;32;33580;-59
2021/05/12 00:42:29;;;;;;;10.20;3.17;;;;;;;24.04;40.00;98803.69;4484764;32;34085;-60
2021/05/12 00:44:58;;;;;;;12.82;2.85;;;;;;;24.04;39.97;98798.25;4483434;32;33708;-60
2021/05/12 00:47:28;;;;;;;8.95;2.25;;;;;;;24.05;39.91;98792.53;4480663;31;33887;-60
2021/05/12 00:49:56;;;;;;;7.87;2.80;;;;;;;24.05;39.89;98800.72;4472138;31;34621;-60
2021/05/12 00:52:24;;;;;;;6.78;2.70;;;;;;;24.06;39.91;98799.66;4484221;32;33171;-60
2021/05/12 00:54:53;;;;;;;10.70;3.12;;;;;;;24.04;39.92;98796.34;4484632;32;33790;-61
2021/05/12 00:57:21;;;;;;;9.18;2.83;;;;;;;24.04;39.92;98787.34;4483776;31;34949;-61
2021/05/12 00:59:51;;;;;;;7.30;2.53;;;;;;;24.04;39.87;98790.06;4484487;32;33793;-61
2021/05/12 01:02:18;;;;;;;7.28;2.83;;;;;;;24.03;39.86;98791.16;4479604;32;33380;-57
2021/05/12 01:04:46;;;;;;;11.52;2.55;;;;;;;24.03;39.83;98786.53;4479896;32;36198;-59
2021/05/12 01:07:14;;;;;;;7.25;2.40;;;;;;;24.02;39.95;98782.16;4484568;32;34831;-59
2021/05/12 01:09:41;;;;;;;14.15;2.55;;;;;;;24.02;39.88;98784.06;4484476;32;33971;-60
2021/05/12 01:12:09;;;;;;;11.00;2.55;;;;;;;24.03;39.96;98788.44;4482895;32;33250;-61
2021/05/12 01:14:37;;;;;;;8.50;2.72;;;;;;;24.03;39.99;98791.16;4484439;32;34661;-58
2021/05/12 01:17:04;;;;;;;9.00;2.35;;;;;;;24.03;39.95;98783.81;4484552;32;34837;-61
2021/05/12 01:19:34;;;;;;;7.97;2.45;;;;;;;24.03;40.07;98774.81;4468741;32;33851;-61
2021/05/12 01:22:01;;;;;;;5.87;2.80;;;;;;;24.01;40.00;98769.59;4469151;32;33517;-61
2021/05/12 01:24:29;;;;;;;6.68;2.53;;;;;;;24.04;39.93;98774.53;4468825;32;33834;-61
2021/05/12 01:26:57;;;;;;;9.18;2.58;;;;;;;24.03;39.93;98777.53;4468723;32;33831;-61
2021/05/12 01:29:25;;;;;;;7.28;2.78;;;;;;;24.02;39.86;98774.00;4468351;32;33456;-60
2021/05/12 01:31:54;;;;;;;8.23;2.30;;;;;;;24.03;39.86;98774.81;4484420;32;32609;-60
2021/05/12 01:34:21;;;;;;;7.43;2.50;;;;;;;24.02;39.91;98763.09;4482345;32;33725;-61
2021/05/12 01:36:50;;;;;;;6.22;2.40;;;;;;;24.03;39.91;98758.47;4484584;32;34917;-61
2021/05/12 01:39:20;;;;;;;10.02;2.72;;;;;;;24.01;39.94;98758.69;4484233;32;34697;-60
2021/05/12 01:41:48;;;;;;;8.63;2.45;;;;;;;24.02;39.89;98752.19;4484324;32;33406;-62
2021/05/12 01:44:17;;;;;;;6.28;2.42;;;;;;;24.02;40.08;98749.47;4484223;32;33641;-60
2021/05/12 01:46:46;;;;;;;8.30;2.33;;;;;;;24.04;39.79;98755.47;4470240;32;33929;-61
2021/05/12 01:49:15;;;;;;;7.32;2.72;;;;;;;24.02;39.89;98749.47;4484329;32;33774;-61
2021/05/12 01:51:43;;;;;;;9.60;2.62;;;;;;;24.03;40.17;98748.38;4484383;32;33363;-60
2021/05/12 01:54:11;;;;;;;8.30;3.22;;;;;;;24.02;40.27;98746.75;4484194;32;34886;-60
2021/05/12 01:56:40;;;;;;;6.32;2.28;;;;;;;24.02;40.21;98745.94;4484335;32;33936;-61
2021/05/12 01:59:07;;;;;;;6.03;2.30;;;;;;;24.02;40.13;98743.19;4484162;32;34738;-61
2021/05/12 02:01:43;;;;;;;5.47;2.58;;;;;;;24.02;40.19;98737.75;4484170;32;33501;-61
2021/05/12 02:04:11;;;;;;;7.85;2.58;;;;;;;24.02;40.07;98735.03;4484653;32;33825;-61
2021/05/12 02:06:39;;;;;;;12.05;2.50;;;;;;;24.02;40.12;98733.13;4484477;32;33937;-60
2021/05/12 02:09:07;;;;;;;9.43;2.50;;;;;;;24.00;40.13;98735.25;4484115;32;33765;-61
2021/05/12 02:11:35;;;;;;;7.00;2.40;;;;;;;24.00;40.09;98724.34;4484135;31;33325;-60
2021/05/12 02:14:05;;;;;;;5.23;2.60;;;;;;;24.01;40.07;98723.28;4484422;32;33586;-61
2021/05/12 02:16:33;;;;;;;6.43;2.47;;;;;;;24.02;40.11;98721.41;4484103;32;34896;-60
2021/05/12 02:19:00;;;;;;;5.78;2.42;;;;;;;24.02;40.13;98722.22;4484308;32;34729;-61
2021/05/12 02:21:29;;;;;;;8.23;2.40;;;;;;;24.02;40.21;98716.78;4484185;32;34031;-60
2021/05/12 02:23:57;;;;;;;7.53;2.60;;;;;;;24.00;40.13;98721.63;4484013;32;34591;-60
2021/05/12 02:26:25;;;;;;;5.87;2.33;;;;;;;24.00;40.09;98707.19;4484118;32;35009;-61
2021/05/12 02:28:53;;;;;;;5.32;2.22;;;;;;;24.00;40.34;98713.47;4483929;32;33787;-61
2021/05/12 02:31:20;;;;;;;8.85;2.03;;;;;;;24.00;40.41;98709.91;4484088;32;33375;-60
2021/05/12 02:33:48;;;;;;;10.32;3.03;;;;;;;24.00;40.34;98713.47;4483775;32;34408;-61
2021/05/12 02:36:16;;;;;;;6.55;2.37;;;;;;;24.00;40.27;98707.19;4483744;32;33791;-61
2021/05/12 02:38:43;;;;;;;4.72;2.05;;;;;;;24.00;40.19;98712.63;4484020;32;33836;-60
2021/05/12 02:41:12;;;;;;;6.37;2.35;;;;;;;23.99;40.36;98711.81;4484040;32;34022;-61
2021/05/12 02:43:39;;;;;;;5.18;2.25;;;;;;;23.99;40.32;98717.28;4483876;32;33820;-61
2021/05/12 02:46:07;;;;;;;7.18;2.00;;;;;;;23.99;40.38;98717.28;4483857;32;33935;-60
2021/05/12 02:48:34;;;;;;;4.35;2.08;;;;;;;23.98;40.39;98715.63;4483810;32;34578;-61
2021/05/12 02:51:02;;;;;;;10.00;3.55;;;;;;;23.98;40.39;98715.63;4483699;32;33608;-61
2021/05/12 02:53:30;;;;;;;5.70;2.25;;;;;;;23.98;40.41;98712.91;4482384;32;33585;-61
2021/05/12 02:55:57;;;;;;;5.62;1.90;;;;;;;23.98;40.45;98712.09;4483690;32;33832;-60
2021/05/12 02:58:25;;;;;;;7.43;2.60;;;;;;;23.99;40.28;98716.44;4483603;32;34560;-61
2021/05/12 03:00:53;;;;;;;6.30;1.95;;;;;;;23.99;40.29;98716.44;4483534;32;33717;-60
2021/05/12 03:03:20;;;;;;;5.75;2.20;;;;;;;23.98;40.38;98718.34;4483590;32;33987;-60
2021/05/12 03:05:48;;;;;;;7.50;2.70;;;;;;;23.98;40.63;98721.09;4483387;32;33932;-61
2021/05/12 03:08:16;;;;;;;6.93;2.50;;;;;;;23.99;40.68;98733.63;4467999;32;33737;-61
2021/05/12 03:10:43;;;;;;;10.07;2.12;;;;;;;23.98;40.64;98723.81;4479395;32;33075;-61
2021/05/12 03:13:11;;;;;;;5.62;2.05;;;;;;;23.99;40.70;98735.53;4483484;32;33804;-61
2021/05/12 03:15:38;;;;;;;7.15;2.53;;;;;;;24.00;40.58;98729.00;4483804;32;33497;-61
2021/05/12 03:18:06;;;;;;;7.65;2.20;;;;;;;23.99;40.50;98722.72;4483658;32;33866;-60
2021/05/12 03:20:34;;;;;;;5.72;2.33;;;;;;;23.99;40.59;98719.19;4483293;32;33402;-61
2021/05/12 03:23:02;;;;;;;5.47;2.30;;;;;;;23.99;40.63;98721.91;4482477;32;33786;-61
2021/05/12 03:25:29;;;;;;;8.55;2.17;;;;;;;23.98;40.58;98723.81;4483273;32;34762;-60
2021/05/12 03:27:57;;;;;;;9.95;2.10;;;;;;;23.99;40.64;98716.44;4483236;32;33890;-60
2021/05/12 03:30:31;;;;;;;6.95;2.00;;;;;;;23.98;40.61;98715.63;4483340;32;33050;-62
2021/05/12 03:32:59;;;;;;;3.60;1.75;;;;;;;23.99;40.64;98717.28;4482180;32;34601;-60
2021/05/12 03:35:26;;;;;;;5.78;2.00;;;;;;;23.99;40.65;98717.28;4482841;32;34966;-61
2021/05/12 03:37:56;;;;;;;5.65;2.37;;;;;;;23.99;40.61;98721.91;4483166;32;34057;-60
2021/05/12 03:40:24;;;;;;;5.03;2.20;;;;;;;24.00;40.34;98713.47;4483224;32;33667;-61
2021/05/12 03:42:52;;;;;;;4.72;2.00;;;;;;;24.00;40.38;98724.34;4483135;32;34848;-61
2021/05/12 03:45:20;;;;;;;5.57;2.12;;;;;;;23.99;40.54;98725.44;4482986;32;34873;-61
2021/05/12 03:47:48;;;;;;;5.55;1.80;;;;;;;23.99;40.60;98716.44;4483032;32;34738;-60
2021/05/12 03:50:16;;;;;;;10.50;2.47;;;;;;;23.99;40.45;98702.81;4482889;32;33310;-61
2021/05/12 03:52:44;;;;;;;9.70;2.20;;;;;;;23.99;40.49;98706.37;4482848;32;34532;-61
2021/05/12 03:55:12;;;;;;;11.10;2.30;;;;;;;24.00;40.54;98704.47;4482809;32;34664;-61
2021/05/12 03:57:39;;;;;;;4.70;2.20;;;;;;;23.99;40.84;98703.66;4483040;32;33848;-61
2021/05/12 04:00:08;;;;;;;5.37;2.10;;;;;;;23.99;40.89;98700.09;4485076;32;34413;-60
2021/05/12 04:02:40;;;;;;;9.80;2.47;;;;;;;23.99;40.80;98700.94;4470069;32;33963;-60
2021/05/12 04:05:09;;;;;;;6.12;2.20;;;;;;;23.99;40.61;98706.37;4469400;32;33649;-60
2021/05/12 04:07:37;;;;;;;10.25;1.95;;;;;;;23.99;40.59;98705.56;4469729;32;33788;-59
2021/05/12 04:10:05;;;;;;;4.93;2.00;;;;;;;23.99;40.51;98700.94;4469295;32;33963;-60
2021/05/12 04:12:33;;;;;;;6.03;2.15;;;;;;;23.99;40.56;98708.28;4469084;32;33831;-59
2021/05/12 04:15:00;;;;;;;7.72;2.40;;;;;;;24.00;40.59;98715.38;4474519;32;34618;-59
2021/05/12 04:17:29;;;;;;;9.15;2.28;;;;;;;23.99;40.71;98711.81;4474048;32;33861;-61
2021/05/12 04:19:57;;;;;;;4.53;2.03;;;;;;;24.01;40.34;98709.66;4469209;32;33078;-60
2021/05/12 04:22:27;;;;;;;4.47;2.10;;;;;;;24.00;40.42;98702.56;4483397;32;33914;-60
2021/05/12 04:24:55;;;;;;;12.85;2.90;;;;;;;24.03;40.32;98712.13;4485153;32;33951;-62
2021/05/12 04:27:24;;;;;;;18.20;3.28;;;;;;;24.02;40.28;98714.03;4477767;32;34022;-58
2021/05/12 04:29:51;;;;;;;14.82;3.03;;;;;;;24.02;39.45;98705.06;4480713;32;33752;-58
2021/05/12 04:32:19;;;;;;;21.23;3.33;;;;;;;24.00;39.70;98704.47;4484620;32;33751;-56
2021/05/12 04:34:47;;;;;;;18.70;3.53;;;;;;;23.98;39.82;98707.47;4470979;32;34542;-58
2021/05/12 04:37:14;;;;;;;18.35;3.60;;;;;;;23.98;39.97;98714.81;4484742;32;33879;-58
2021/05/12 04:39:42;;;;;;;15.05;3.22;;;;;;;23.96;39.87;98703.34;4484837;32;33091;-58
2021/05/12 04:42:09;;;;;;;15.30;3.00;;;;;;;23.96;39.86;98695.16;4484767;32;33755;-56
2021/05/12 04:44:37;;;;;;;13.30;2.80;;;;;;;23.95;39.86;98699.78;4484796;32;34730;-57
2021/05/12 04:47:04;;;;;;;17.73;3.47;;;;;;;23.95;39.83;98696.25;4481228;32;34230;-57
2021/05/12 04:49:32;;;;;;;13.55;3.47;;;;;;;23.95;39.86;98704.41;4469408;32;33265;-55
2021/05/12 04:52:00;;;;;;;16.55;3.15;;;;;;;23.95;39.88;98715.31;4469097;32;33745;-58
2021/05/12 04:54:27;;;;;;;20.77;3.00;;;;;;;23.94;39.86;98711.78;4467870;32;34634;-56
2021/05/12 04:56:55;;;;;;;13.45;2.70;;;;;;;23.95;39.86;98705.22;4468936;32;33717;-57
2021/05/12 04:59:24;;;;;;;16.77;3.55;;;;;;;23.93;39.85;98700.06;4468749;32;34220;-57
2021/05/12 05:01:52;;;;;;;18.55;3.17;;;;;;;23.94;39.84;98700.88;4468690;32;34696;-57
2021/05/12 05:04:21;;;;;;;17.20;3.62;;;;;;;23.93;39.83;98702.78;4468752;32;33824;-58
2021/05/12 05:06:51;;;;;;;18.17;2.87;;;;;;;23.94;39.80;98706.31;4473852;32;33680;-56
2021/05/12 05:09:20;;;;;;;15.63;2.95;;;;;;;23.94;39.78;98706.31;4476718;32;33306;-61
2021/05/12 05:11:47;;;;;;;10.35;2.30;;;;;;;23.95;39.75;98709.88;4483743;32;34448;-60
2021/05/12 05:14:16;;;;;;;13.07;2.92;;;;;;;23.93;39.71;98705.50;4483838;32;34324;-61
2021/05/12 05:16:43;;;;;;;10.52;2.58;;;;;;;23.94;39.68;98706.31;4484255;32;33916;-61
2021/05/12 05:19:11;;;;;;;12.50;2.92;;;;;;;23.94;39.67;98698.16;4484314;32;33601;-60
2021/05/12 05:21:39;;;;;;;13.02;3.33;;;;;;;23.94;39.68;98695.44;4482834;32;33838;-61
2021/05/12 05:24:10;;;;;;;16.85;2.75;;;;;;;23.93;39.68;98693.78;4484482;32;33827;-61
2021/05/12 05:26:38;;;;;;;13.60;2.60;;;;;;;23.93;39.67;98691.06;4484082;32;33776;-61
2021/05/12 05:29:05;;;;;;;11.20;2.90;;;;;;;23.93;39.63;98691.06;4483969;32;34070;-60
2021/05/12 05:31:33;;;;;;;13.15;2.80;;;;;;;23.94;39.63;98681.81;4481007;32;96587;-59
2021/05/12 05:34:18;;;;;;;8.82;2.50;;;;;;;23.94;39.58;98692.69;4452050;32;33787;-58
2021/05/12 05:37:01;;;;;;;9.35;2.87;;;;;;;23.95;39.55;98690.78;4449819;32;33820;-61
2021/05/12 05:39:44;;;;;;;9.45;2.60;;;;;;;23.94;39.53;98687.25;4466079;32;32957;-61
2021/05/12 05:42:30;;;;;;;7.03;2.50;;;;;;;23.94;39.52;98684.53;4484210;32;33792;-61
2021/05/12 05:45:27;;;;;;;13.82;2.78;;;;;;;23.93;39.52;98691.06;4450782;32;33810;-61
2021/05/12 05:48:22;;;;;;;7.90;2.65;;;;;;;23.93;39.50;98691.06;4462617;31;33757;-61
2021/05/12 05:51:17;;;;;;;7.30;2.55;;;;;;;23.93;39.50;98683.72;4464887;31;34489;-61
2021/05/12 05:54:03;;;;;;;11.05;2.50;;;;;;;23.93;39.49;98691.06;4484569;32;33597;-61
2021/05/12 05:56:48;;;;;;;12.13;2.72;;;;;;;23.92;39.51;98689.37;4484400;32;33909;-59
2021/05/12 05:59:34;;;;;;;11.57;2.53;;;;;;;23.92;39.51;98697.56;4465987;32;33792;-61
2021/05/12 06:02:19;;;;;;;7.80;2.30;;;;;;;23.91;39.52;98694.03;4473647;32;32958;-60
2021/05/12 06:05:04;;;;;;;11.00;2.67;;;;;;;23.92;39.46;98692.97;4484273;32;33462;-61
2021/05/12 06:07:52;;;;;;;9.77;2.58;;;;;;;23.93;39.43;98691.06;4470155;31;35022;-60
2021/05/12 06:10:38;;;;;;;8.77;2.47;;;;;;;23.92;39.44;98690.25;4467305;31;34679;-60
2021/05/12 06:13:21;;;;;;;11.18;2.58;;;;;;;23.92;39.45;98689.37;4457545;31;33181;-60
2021/05/12 06:16:06;;;;;;;8.07;2.50;;;;;;;23.92;39.43;98686.66;4484355;32;35248;-60
2021/05/12 06:18:55;;;;;;;7.00;2.40;;;;;;;23.91;39.41;98687.75;4470206;31;33941;-59
2021/05/12 06:21:38;;;;;;;8.60;2.47;;;;;;;23.92;39.41;98686.66;4457265;32;33721;-61
2021/05/12 06:24:24;;;;;;;8.05;2.60;;;;;;;23.91;39.40;98682.31;4467463;31;33192;-60
2021/05/12 06:27:06;;;;;;;9.63;2.42;;;;;;;23.92;39.36;98690.25;4466060;32;34650;-61
2021/05/12 06:29:52;;;;;;;6.18;2.30;;;;;;;23.92;39.36;98689.37;4483024;32;34647;-59
2021/05/12 06:32:38;;;;;;;5.85;2.20;;;;;;;23.90;39.39;98688.84;4451954;32;33419;-61
2021/05/12 06:35:40;;;;;;;10.77;2.78;;;;;;;23.91;39.37;98690.47;4455703;31;34304;-60
2021/05/12 06:38:27;;;;;;;10.18;2.30;;;;;;;23.92;39.36;98689.37;4483590;32;34136;-60
2021/05/12 06:40:56;;;;;;;7.00;2.40;;;;;;;23.90;39.37;98699.72;4483867;32;34732;-60
2021/05/12 06:43:24;;;;;;;8.38;2.30;;;;;;;23.91;39.33;98701.38;4483982;32;33857;-60
2021/05/12 06:45:52;;;;;;;8.82;2.28;;;;;;;23.90;39.30;98703.28;4482608;32;34038;-61
2021/05/12 06:48:19;;;;;;;6.20;2.05;;;;;;;23.91;39.29;98704.09;4483749;32;34554;-61
2021/05/12 06:50:48;;;;;;;5.60;2.20;;;;;;;23.92;39.25;98706.59;4484029;32;33818;-61
2021/05/12 06:53:30;;;;;;;5.90;2.53;;;;;;;23.91;39.22;98710.38;4483531;32;33781;-60
2021/05/12 06:55:58;;;;;;;7.50;2.30;;;;;;;23.95;39.16;98710.69;4483980;32;34126;-60
2021/05/12 06:58:26;;;;;;;7.55;2.83;;;;;;;23.92;39.16;98706.59;4483471;32;34505;-61
2021/05/12 07:00:54;;;;;;;5.60;2.62;;;;;;;23.94;39.13;98711.78;4483534;32;33819;-60
2021/05/12 07:03:23;;;;;;;5.40;2.40;;;;;;;23.95;39.13;98718.84;4483308;32;34068;-61
2021/05/12 07:05:51;;;;;;;9.63;1.80;;;;;;;23.94;39.09;98719.94;4483256;32;33551;-61
2021/05/12 07:08:20;;;;;;;8.32;2.12;;;;;;;23.97;39.07;98721.31;4483642;32;33858;-61
2021/05/12 07:10:48;;;;;;;5.40;2.12;;;;;;;23.96;39.08;98719.69;4483377;32;33789;-59
2021/05/12 07:13:16;;;;;;;5.62;2.15;;;;;;;23.96;39.07;98719.69;4483322;32;33909;-61
2021/05/12 07:15:44;;;;;;;10.02;2.62;;;;;;;23.98;39.06;98714.81;4483524;32;33396;-60
2021/05/12 07:18:12;;;;;;;8.93;2.30;;;;;;;23.96;39.06;98712.31;4483308;32;34869;-61
2021/05/12 07:20:40;;;;;;;6.22;2.62;;;;;;;23.97;39.06;98711.28;4483192;32;34657;-61
2021/05/12 07:23:09;;;;;;;7.68;2.17;;;;;;;23.98;39.05;98709.38;4483153;32;34448;-60
2021/05/12 07:25:37;;;;;;;5.40;2.25;;;;;;;23.99;39.05;98705.56;4483279;32;34303;-61
2021/05/12 07:28:05;;;;;;;7.85;2.20;;;;;;;23.99;39.03;98705.56;4482989;32;33732;-61
2021/05/12 07:30:33;;;;;;;6.00;2.10;;;;;;;24.00;39.00;98712.63;4483068;32;33557;-60
2021/05/12 07:33:00;;;;;;;3.92;2.12;;;;;;;24.00;39.00;98712.63;4482341;32;34414;-60
2021/05/12 07:35:28;;;;;;;5.03;2.00;;;;;;;23.99;39.00;98708.28;4485113;32;34199;-60
2021/05/12 07:37:56;;;;;;;7.45;2.25;;;;;;;24.00;39.00;98712.63;4485242;32;34558;-61
2021/05/12 07:40:23;;;;;;;7.50;2.30;;;;;;;24.00;39.00;98704.47;4485137;32;33864;-61
2021/05/12 07:42:52;;;;;;;6.18;2.12;;;;;;;23.99;39.02;98703.66;4484939;32;33803;-60
2021/05/12 07:45:22;;;;;;;5.15;2.30;;;;;;;24.00;39.01;98701.75;4485092;32;33011;-59
2021/05/12 07:48:05;;;;;;;6.97;2.15;;;;;;;24.00;39.00;98705.28;4484880;32;35107;-61
2021/05/12 07:50:34;;;;;;;5.62;1.67;;;;;;;24.01;38.98;98692.47;4485143;32;33771;-61
2021/05/12 07:53:04;;;;;;;6.43;1.90;;;;;;;24.00;38.99;98693.56;4484997;32;34734;-60
2021/05/12 07:55:31;;;;;;;5.33;2.03;;;;;;;24.00;38.99;98691.66;4485385;32;33483;-61
2021/05/12 07:57:59;;;;;;;4.82;2.08;;;;;;;24.01;38.95;98682.41;4485291;32;33240;-61
2021/05/12 08:00:27;;;;;;;5.03;1.98;;;;;;;24.01;38.98;98687.84;4484895;32;33845;-61
2021/05/12 08:02:55;;;;;;;5.00;1.77;;;;;;;24.00;38.98;98678.03;4484838;32;33718;-61
2021/05/12 08:05:22;;;;;;;4.87;2.67;;;;;;;24.01;38.97;98676.94;4485003;32;33052;-61
2021/05/12 08:07:50;;;;;;;4.50;2.05;;;;;;;24.01;38.97;98665.22;4485099;32;34359;-61
2021/05/12 08:10:18;;;;;;;7.12;2.30;;;;;;;24.01;38.95;98659.78;4484925;32;34779;-61
2021/05/12 08:12:46;;;;;;;4.53;2.00;;;;;;;24.01;38.94;98652.44;4484881;31;33784;-60
2021/05/12 08:15:13;;;;;;;5.87;2.20;;;;;;;24.00;38.95;98639.06;4484766;32;33274;-61
2021/05/12 08:17:41;;;;;;;5.78;2.25;;;;;;;24.00;38.93;98658.97;4484822;32;33184;-61
2021/05/12 08:20:09;;;;;;;3.30;1.67;;;;;;;24.02;38.92;98654.09;4484875;32;33892;-60
2021/05/12 08:22:36;;;;;;;4.22;1.92;;;;;;;24.01;38.92;98666.06;4484911;32;34421;-61
2021/05/12 08:25:05;;;;;;;4.47;1.80;;;;;;;24.01;38.91;98660.59;4484834;32;33056;-60
2021/05/12 08:27:32;;;;;;;6.10;2.17;;;;;;;24.01;38.91;98666.06;4484929;32;33664;-60
2021/05/12 08:30:02;;;;;;;4.12;1.98;;;;;;;24.02;38.90;98659.56;4484741;32;33713;-60
2021/05/12 08:32:30;;;;;;;5.40;2.00;;;;;;;24.02;38.89;98661.47;4484807;32;33555;-61
2021/05/12 08:34:58;;;;;;;4.70;1.80;;;;;;;24.02;38.86;98667.72;4484689;32;33290;-61
2021/05/12 08:37:25;;;;;;;5.68;1.92;;;;;;;24.02;38.87;98667.72;4484828;32;34671;-61
2021/05/12 08:39:53;;;;;;;3.40;1.75;;;;;;;24.03;38.84;98665.81;4484816;32;33954;-61
2021/05/12 08:42:20;;;;;;;3.47;1.65;;;;;;;24.01;38.83;98667.97;4484545;32;34761;-61
2021/05/12 08:44:48;;;;;;;4.82;2.25;;;;;;;24.02;38.82;98669.63;4470248;32;33438;-61
2021/05/12 08:47:16;;;;;;;7.30;2.17;;;;;;;24.02;38.81;98670.44;4483424;32;33636;-61
2021/05/12 08:49:44;;;;;;;8.07;1.80;;;;;;;24.01;38.82;98663.34;4484693;32;33985;-61
2021/05/12 08:52:12;;;;;;;6.43;1.83;;;;;;;24.02;38.82;98664.19;4470306;32;34756;-60
2021/05/12 08:54:40;;;;;;;4.22;1.90;;;;;;;24.01;38.82;98666.06;4484627;32;33252;-59
2021/05/12 08:57:08;;;;;;;6.47;1.83;;;;;;;24.01;38.81;98657.88;4483537;32;33591;-61
2021/05/12 08:59:37;;;;;;;3.67;1.98;;;;;;;24.02;38.79;98654.09;4484479;32;33571;-59
2021/05/12 09:02:05;;;;;;;5.00;1.90;;;;;;;24.02;38.79;98648.66;4483430;32;33739;-59
2021/05/12 09:04:33;;;;;;;4.87;1.73;;;;;;;24.02;38.80;98645.09;4484450;32;33320;-61
2021/05/12 09:07:00;;;;;;;4.28;1.87;;;;;;;24.02;38.79;98637.75;4484552;32;33848;-60
2021/05/12 09:09:28;;;;;;;4.30;1.55;;;;;;;24.02;38.79;98653.28;4483240;32;33219;-61
2021/05/12 09:11:58;;;;;;;4.93;1.80;;;;;;;24.03;38.79;98646.75;4484458;31;35230;-61
2021/05/12 09:14:33;;;;;;;4.60;2.00;;;;;;;24.03;38.78;98641.28;4484665;32;33260;-61
2021/05/12 09:17:02;;;;;;;3.37;1.80;;;;;;;24.01;38.82;98644.25;4484458;32;33903;-60
2021/05/12 09:19:30;;;;;;;6.72;1.95;;;;;;;24.02;38.80;98645.09;4484246;32;33813;-61
2021/05/12 09:22:02;;;;;;;5.00;1.85;;;;;;;24.02;38.78;98645.94;4484625;32;33744;-60
2021/05/12 09:24:31;;;;;;;3.22;1.80;;;;;;;24.01;38.78;98636.09;4484368;32;33366;-61
2021/05/12 09:27:22;;;;;;;3.87;1.83;;;;;;;24.02;38.78;98632.31;4484513;32;35310;-60
2021/05/12 09:29:59;;;;;;;4.12;1.90;;;;;;;24.03;38.75;98624.94;4484347;32;33820;-61
2021/05/12 09:32:43;;;;;;;3.97;1.65;;;;;;;24.03;38.75;98625.75;4484162;32;34064;-61
2021/05/12 09:35:13;;;;;;;5.20;1.80;;;;;;;24.02;38.78;98624.13;4484239;32;34745;-61
2021/05/12 09:37:44;;;;;;;5.20;3.08;;;;;;;24.01;38.78;98627.91;4484327;32;33843;-60
2021/05/12 09:40:17;;;;;;;5.12;1.70;;;;;;;24.01;38.77;98625.19;4484328;32;33619;-61
2021/05/12 09:42:46;;;;;;;3.35;1.77;;;;;;;24.01;38.78;98638.00;4484175;32;33931;-61
2021/05/12 09:45:21;;;;;;;4.22;1.85;;;;;;;24.01;38.79;98638.81;4483032;32;34234;-60
2021/05/12 09:47:50;;;;;;;3.50;1.70;;;;;;;24.01;38.78;98638.81;4484299;32;33727;-61
2021/05/12 09:50:26;;;;;;;5.87;1.90;;;;;;;24.00;38.80;98642.63;4484581;32;34450;-61
2021/05/12 09:52:56;;;;;;;6.18;1.70;;;;;;;24.02;38.77;98645.09;4484395;32;33819;-60
2021/05/12 09:55:36;;;;;;;4.28;1.70;;;;;;;24.01;38.78;98636.09;4483330;32;33314;-61
2021/05/12 09:58:10;;;;;;;4.30;1.73;;;;;;;24.03;38.73;98644.03;4484118;32;33810;-60
2021/05/12 10:00:42;;;;;;;5.20;1.90;;;;;;;24.02;38.77;98647.84;4484220;32;33933;-60
2021/05/12 10:03:11;;;;;;;3.97;1.62;;;;;;;24.01;38.78;98655.16;4483886;32;34741;-61
2021/05/12 10:05:58;;;;;;;3.25;1.75;;;;;;;24.00;38.79;98656.25;4484111;32;34021;-60
2021/05/12 10:08:32;;;;;;;5.00;1.52;;;;;;;24.03;38.74;98649.47;4484129;32;33506;-61
2021/05/12 10:11:01;;;;;;;3.87;1.75;;;;;;;24.01;38.78;98643.44;4483801;32;33829;-61
2021/05/12 10:13:33;;;;;;;4.43;1.73;;;;;;;24.00;38.78;98645.34;4484148;32;33498;-61
2021/05/12 10:16:01;;;;;;;6.28;2.15;;;;;;;24.01;38.77;98649.72;4484023;32;34319;-60
2021/05/12 10:18:30;;;;;;;4.55;1.50;;;;;;;24.01;38.77;98649.72;4484002;32;33955;-60
2021/05/12 10:21:16;;;;;;;6.37;1.77;;;;;;;24.01;38.75;98646.97;4484056;32;34786;-60
2021/05/12 10:23:44;;;;;;;3.30;1.50;;;;;;;24.01;38.75;98648.88;4483688;32;34045;-61
2021/05/12 10:26:12;;;;;;;3.62;1.83;;;;;;;24.01;38.76;98644.25;4482826;32;33466;-60
2021/05/12 10:28:39;;;;;;;3.90;1.55;;;;;;;24.01;38.75;98646.16;4483021;32;33865;-61
2021/05/12 10:31:07;;;;;;;3.35;1.65;;;;;;;24.02;38.74;98650.56;4483752;32;34961;-61
2021/05/12 10:33:53;;;;;;;3.80;1.98;;;;;;;24.01;38.74;98649.72;4484062;32;33499;-61
2021/05/12 10:36:23;;;;;;;4.12;1.60;;;;;;;24.04;38.71;98637.47;4483744;32;33350;-61
2021/05/12 10:38:52;;;;;;;5.15;1.98;;;;;;;24.02;38.71;98639.66;4484135;32;33476;-60
2021/05/12 10:41:45;;;;;;;3.80;1.80;;;;;;;24.02;38.70;98654.09;4484154;32;34404;-60
2021/05/12 10:47:08;;;;;;;3.62;1.50;;;;;;;24.02;38.73;98637.75;4483883;32;33107;-60
2021/05/12 10:49:36;;;;;;;4.40;1.60;;;;;;;24.02;38.75;98648.66;4483720;32;33696;-60
2021/05/12 10:52:08;;;;;;;3.58;1.55;;;;;;;24.03;38.71;98655.75;4483430;32;33867;-60
2021/05/12 10:54:51;;;;;;;4.43;1.75;;;;;;;24.02;38.75;98658.72;4483916;32;34313;-60
2021/05/12 10:57:49;;;;;;;3.37;1.70;;;;;;;24.04;38.69;98665.56;4483500;32;33314;-61
2021/05/12 11:00:18;;;;;;;2.50;1.60;;;;;;;24.05;38.67;98658.19;4476801;32;33770;-60
2021/05/12 11:03:02;;;;;;;3.65;1.80;;;;;;;24.02;38.72;98656.00;4483769;32;34811;-61
2021/05/12 11:05:51;;;;;;;3.90;1.65;;;;;;;24.01;38.75;98657.88;4483534;32;34414;-61
2021/05/12 11:08:19;;;;;;;3.12;1.62;;;;;;;24.04;38.68;98656.56;4482254;32;34209;-61
2021/05/12 11:10:57;;;;;;;3.45;1.62;;;;;;;24.00;38.76;98648.06;4483479;31;33760;-61
2021/05/12 11:13:26;;;;;;;3.70;1.50;;;;;;;24.00;38.77;98644.53;4483476;32;33481;-60
2021/05/12 11:15:58;;;;;;;3.20;1.57;;;;;;;24.00;38.73;98636.34;4483342;32;33943;-61
2021/05/12 11:18:38;;;;;;;2.85;1.50;;;;;;;24.01;38.74;98638.81;4483277;32;34277;-60
2021/05/12 11:21:42;;;;;;;;;;;;;;;24.03;38.70;98630.41;4483900;32;34477;-60
2021/05/12 11:24:10;;;;;;;3.37;1.87;;;;;;;24.12;38.54;98631.56;4483224;32;34117;-60
2021/05/12 11:31:26;;;;;;;3.70;1.60;;;;;;;24.00;38.77;98626.28;4483141;32;33244;-60
2021/05/12 11:32:05;;;;;;;3.12;1.50;;;;;;;24.00;38.76;98617.28;4482999;32;33897;-61
2021/05/12 11:34:33;;;;;;;2.85;1.70;;;;;;;23.99;38.78;98613.72;4483204;32;33893;-61
2021/05/12 11:37:08;;;;;;;2.78;1.55;;;;;;;23.99;38.78;98613.72;4483379;32;33486;-61
2021/05/12 11:39:53;;;;;;;3.35;1.52;;;;;;;23.98;38.81;98595.75;4483153;32;34029;-60
2021/05/12 11:42:21;;;;;;;;;;;;;;;24.00;38.75;98593.56;4483354;32;33759;-61
2021/05/12 11:44:49;;;;;;;4.15;1.60;;;;;;;24.10;38.57;98584.66;4482868;32;34302;-60
2021/05/12 11:47:29;;;;;;;2.90;1.50;;;;;;;24.02;38.71;98601.50;4482970;32;33833;-60
2021/05/12 11:49:57;;;;;;;3.08;1.45;;;;;;;24.01;38.77;98611.56;4482695;32;32962;-61
2021/05/12 11:52:28;;;;;;;4.57;1.80;;;;;;;23.98;38.80;98636.63;4483237;32;34466;-61
2021/05/12 11:55:06;;;;;;;3.95;1.80;;;;;;;23.97;38.83;98634.97;4482848;32;33812;-61